Airfield :
LOGIN :

Register | Disclaimer

   EN    FR    IT 

 










Legend :    VFR   Marginal VFR   IFR   Intensive IFR   Very Intensive IFR
Visi :
Ceiling :
>= 8 km
>= 3000ft
5 to 8 km
1000 to 3000 ft
1500m to 5 km
500 to 1000 ft
800 to 1500m
200 to 500 ft
< 800m
< 200 ft
Symbols :   Thunderstorms  Fog  Heavy snow  Heavy precipitations  Wind > 20 kt
SIGMETs :     Misc.  Thunderstorms  Icing  Turbulence  Mountain Waves  Volcanic Ashes






- Airport Elevation : 1776 ft
- IATA code : BWK


LDSB - Bol

CURRENT METAR :
  • 281400Z 02010KT 9999 FEW057 24/11 Q1018

EXPIRED METARs :
  • 281330Z 04010KT 010V090 CAVOK 25/10 Q1018
  • 281300Z 06010KT 020V100 CAVOK 25/10 Q1018
  • 281230Z 05012KT 020V090 CAVOK 25/10 Q1018
  • 281200Z 04013KT 010V080 CAVOK 24/09 Q1018
  • 281130Z 04012KT CAVOK 24/10 Q1018

TAF TAF LDSB
Valid from the 28 at 12:00 until the 29 at 12:00 UTC


281125Z 2812/2912 30008KT CAVOK TX25/2813Z TN16/2904Z
PROB30
TEMPO 2812/2814 04010KT
BECMG 2815/2817 04015KT
BECMG 2904/2906 04005KT
BECMG 2910/2912 21007KT



MET'MAP, your aeronautical weather chart ! - Copyright ORBIFLY December 2007 - Disclaimer

ORBIFLY MET'MAP TEAM :

Programming & Development : Alexandra Zaïnal
Concept & original design : Baudouin d'Aumeries
Assistance for programming : Marc-Olivier Méhu
Technical & hardware support : Manuel Goepfert

Contact : metmap@orbifly.com




SOURCES & CREDITS :

   NOAA